Time;durP1;ratioP1;P1;durP2;ratioP2;P2;SDS_P1;SDS_P2;PMS_P1;PMS_P2;Temp;Humidity;BMP_temperature;BMP_pressure;BME280_temperature;BME280_humidity;BME280_pressure;Samples;Min_cycle;Max_cycle;Signal;HPM_P1;HPM_P2
2021/12/04 00:00:35;;;;;;;19.50;17.42;;;;;;;;;;5028442;28;20052;-59
2021/12/04 00:03:00;;;;;;;21.45;19.45;;;;;;;;;;5031328;28;20041;-59
2021/12/04 00:05:25;;;;;;;19.50;17.13;;;;;;;;;;5036050;28;20476;-59
2021/12/04 00:07:50;;;;;;;20.13;17.27;;;;;;;;;;5039589;28;20029;-59
2021/12/04 00:10:21;;;;;;;20.55;18.25;;;;;;;;;;5039846;28;20470;-59
2021/12/04 00:12:47;;;;;;;21.00;18.77;;;;;;;;;;5041211;28;20028;-59
2021/12/04 00:15:12;;;;;;;19.50;17.10;;;;;;;;;;5037543;28;20121;-59
2021/12/04 00:17:37;;;;;;;21.50;19.40;;;;;;;;;;5044805;28;20530;-59
2021/12/04 00:20:03;;;;;;;20.55;18.23;;;;;;;;;;5049540;28;20056;-59
2021/12/04 00:22:28;;;;;;;24.35;20.33;;;;;;;;;;5049590;28;20028;-59
2021/12/04 00:24:53;;;;;;;21.10;19.00;;;;;;;;;;5046747;28;20037;-59
2021/12/04 00:27:18;;;;;;;21.37;19.27;;;;;;;;;;5030466;28;20034;-59
2021/12/04 00:29:44;;;;;;;22.23;19.97;;;;;;;;;;5028959;28;20530;-59
2021/12/04 00:32:15;;;;;;;25.03;20.77;;;;;;;;;;5030806;28;20444;-59
2021/12/04 00:34:46;;;;;;;22.98;20.77;;;;;;;;;;5030650;28;20559;-59
2021/12/04 00:37:32;;;;;;;22.05;19.85;;;;;;;;;;5030689;28;20017;-58
2021/12/04 00:50:52;;;;;;;19.60;17.55;;;;;;;;;;5032514;28;20107;-59
2021/12/04 00:53:17;;;;;;;20.73;18.63;;;;;;;;;;5039781;28;20549;-59
2021/12/04 00:55:43;;;;;;;18.88;16.92;;;;;;;;;;5033094;28;20474;-59
2021/12/04 00:58:08;;;;;;;18.65;16.77;;;;;;;;;;5034251;28;20051;-59
2021/12/04 01:00:33;;;;;;;27.27;18.03;;;;;;;;;;5032443;28;20038;-60
2021/12/04 01:02:58;;;;;;;20.15;17.15;;;;;;;;;;5037283;28;21092;-59
2021/12/04 01:05:23;;;;;;;18.77;16.77;;;;;;;;;;5052379;28;20037;-59
2021/12/04 01:07:49;;;;;;;18.23;16.33;;;;;;;;;;5052073;28;20495;-59
2021/12/04 01:10:14;;;;;;;19.17;17.27;;;;;;;;;;5052478;28;20037;-59
2021/12/04 01:12:39;;;;;;;17.15;15.45;;;;;;;;;;5037521;28;20112;-60
2021/12/04 01:15:05;;;;;;;19.90;16.70;;;;;;;;;;5052138;28;20033;-59
2021/12/04 01:17:30;;;;;;;18.05;16.35;;;;;;;;;;5053436;28;20495;-60
2021/12/04 01:19:55;;;;;;;18.92;17.02;;;;;;;;;;5052373;28;20458;-60
2021/12/04 01:22:21;;;;;;;18.42;16.63;;;;;;;;;;5043316;28;20063;-59
2021/12/04 01:24:47;;;;;;;18.50;16.73;;;;;;;;;;5035092;28;20044;-59
2021/12/04 01:27:14;;;;;;;18.92;16.92;;;;;;;;;;5033953;28;20021;-59
2021/12/04 01:29:39;;;;;;;21.48;18.65;;;;;;;;;;5032119;28;20484;-60
2021/12/04 01:32:07;;;;;;;21.13;17.90;;;;;;;;;;5033668;28;20028;-59
2021/12/04 01:34:32;;;;;;;16.65;14.95;;;;;;;;;;5047884;28;20037;-59
2021/12/04 01:36:57;;;;;;;19.57;17.20;;;;;;;;;;5053329;28;20470;-59
2021/12/04 01:39:22;;;;;;;17.33;15.52;;;;;;;;;;5034340;28;20022;-59
2021/12/04 01:41:47;;;;;;;21.70;17.87;;;;;;;;;;5041927;28;20066;-59
2021/12/04 01:44:14;;;;;;;16.77;15.15;;;;;;;;;;5050665;28;20016;-59
2021/12/04 01:46:41;;;;;;;18.15;14.73;;;;;;;;;;5053130;28;20021;-59
2021/12/04 01:49:07;;;;;;;18.00;16.00;;;;;;;;;;5051713;28;20028;-59
2021/12/04 01:51:32;;;;;;;15.75;14.15;;;;;;;;;;5046041;28;20179;-58
2021/12/04 01:53:57;;;;;;;16.23;14.68;;;;;;;;;;5051292;28;20499;-58
2021/12/04 01:56:23;;;;;;;17.33;15.27;;;;;;;;;;5051510;28;20037;-59
2021/12/04 01:58:48;;;;;;;18.58;13.68;;;;;;;;;;5052855;28;20025;-59
2021/12/04 02:01:13;;;;;;;15.38;12.80;;;;;;;;;;5047101;28;20025;-59
2021/12/04 02:03:38;;;;;;;15.27;13.83;;;;;;;;;;5033516;28;20022;-58
2021/12/04 02:06:03;;;;;;;16.80;15.00;;;;;;;;;;5031343;28;21083;-59
2021/12/04 02:08:29;;;;;;;22.65;14.15;;;;;;;;;;5044640;28;20459;-58
2021/12/04 02:10:57;;;;;;;20.35;15.48;;;;;;;;;;5049761;28;20033;-59
2021/12/04 02:13:23;;;;;;;16.60;14.93;;;;;;;;;;5032771;28;20028;-59
2021/12/04 02:15:49;;;;;;;16.48;14.52;;;;;;;;;;5031435;28;20411;-58
2021/12/04 02:18:15;;;;;;;18.50;16.27;;;;;;;;;;5032726;28;20057;-58
2021/12/04 02:20:40;;;;;;;19.33;17.00;;;;;;;;;;5043599;28;20033;-58
2021/12/04 02:23:06;;;;;;;22.73;16.13;;;;;;;;;;5034263;28;20021;-58
2021/12/04 02:25:32;;;;;;;18.38;15.48;;;;;;;;;;5030932;28;20026;-58
2021/12/04 02:27:57;;;;;;;18.95;16.92;;;;;;;;;;5032539;28;20017;-59
2021/12/04 02:30:24;;;;;;;16.83;15.02;;;;;;;;;;5030792;28;20041;-58
2021/12/04 02:32:49;;;;;;;17.27;15.45;;;;;;;;;;5048463;28;20017;-58
2021/12/04 02:35:15;;;;;;;19.48;16.35;;;;;;;;;;5050979;28;20029;-59
2021/12/04 02:37:41;;;;;;;19.50;17.40;;;;;;;;;;5046570;28;20104;-59
2021/12/04 02:40:08;;;;;;;19.83;17.70;;;;;;;;;;5031065;28;20115;-59
2021/12/04 02:42:34;;;;;;;22.13;17.70;;;;;;;;;;5045705;28;20025;-59
2021/12/04 02:45:00;;;;;;;20.42;18.17;;;;;;;;;;5050300;28;20027;-58
2021/12/04 02:47:26;;;;;;;25.77;18.52;;;;;;;;;;5051949;28;20020;-58
2021/12/04 02:49:52;;;;;;;24.27;17.23;;;;;;;;;;5050370;28;20045;-59
2021/12/04 02:52:17;;;;;;;21.65;19.10;;;;;;;;;;5041907;28;20021;-59
2021/12/04 02:54:42;;;;;;;26.95;18.42;;;;;;;;;;5050610;28;20557;-59
2021/12/04 02:57:10;;;;;;;26.38;21.98;;;;;;;;;;5052058;28;20100;-59
2021/12/04 02:59:37;;;;;;;26.95;19.58;;;;;;;;;;5049878;28;20033;-59
2021/12/04 03:02:03;;;;;;;27.52;20.98;;;;;;;;;;5035568;28;20104;-59
2021/12/04 03:04:30;;;;;;;31.90;21.05;;;;;;;;;;5030328;28;20029;-59
2021/12/04 03:06:56;;;;;;;25.80;21.50;;;;;;;;;;5041797;28;20657;-59
2021/12/04 03:09:21;;;;;;;27.48;20.75;;;;;;;;;;5049765;28;20021;-59
2021/12/04 03:11:46;;;;;;;32.63;23.80;;;;;;;;;;5037036;28;20017;-57
2021/12/04 03:14:11;;;;;;;29.02;21.83;;;;;;;;;;5030368;28;20482;-58
2021/12/04 03:16:37;;;;;;;28.30;22.05;;;;;;;;;;5031577;28;20535;-58
2021/12/04 03:19:03;;;;;;;31.88;23.70;;;;;;;;;;5031558;28;20021;-58
2021/12/04 03:21:28;;;;;;;28.92;24.35;;;;;;;;;;5041062;28;20075;-58
2021/12/04 03:24:00;;;;;;;28.58;23.13;;;;;;;;;;5037294;28;20117;-58
2021/12/04 03:26:26;;;;;;;33.83;23.50;;;;;;;;;;5029866;28;20029;-59
2021/12/04 03:28:55;;;;;;;30.98;24.48;;;;;;;;;;5031606;28;20070;-60
2021/12/04 03:42:07;;;;;;;36.92;26.20;;;;;;;;;;5034184;28;20084;-60
2021/12/04 03:44:32;;;;;;;33.70;24.45;;;;;;;;;;5030024;28;20476;-58
2021/12/04 03:46:58;;;;;;;34.10;24.83;;;;;;;;;;5031061;28;20383;-61
2021/12/04 03:49:23;;;;;;;34.72;26.88;;;;;;;;;;5040972;28;20099;-59
2021/12/04 03:51:48;;;;;;;34.27;24.47;;;;;;;;;;5036964;28;20025;-60
2021/12/04 03:54:13;;;;;;;34.70;26.35;;;;;;;;;;5029803;28;20017;-60
2021/12/04 03:56:39;;;;;;;34.83;26.53;;;;;;;;;;5031159;28;20361;-60
2021/12/04 03:59:04;;;;;;;33.17;24.13;;;;;;;;;;5039262;28;20554;-60
2021/12/04 04:01:29;;;;;;;35.80;25.33;;;;;;;;;;5045408;28;20401;-58
2021/12/04 04:03:54;;;;;;;30.52;23.08;;;;;;;;;;5031255;28;20480;-58
2021/12/04 04:06:19;;;;;;;40.93;26.57;;;;;;;;;;5028844;28;20061;-59
2021/12/04 04:08:45;;;;;;;36.83;26.53;;;;;;;;;;5036864;28;20494;-59
2021/12/04 04:11:10;;;;;;;37.37;27.03;;;;;;;;;;5047875;28;21002;-58
2021/12/04 04:13:36;;;;;;;31.87;25.27;;;;;;;;;;5050639;28;20423;-58
2021/12/04 04:16:02;;;;;;;31.55;25.05;;;;;;;;;;5049490;28;20462;-60
2021/12/04 04:18:30;;;;;;;34.08;24.38;;;;;;;;;;5048610;28;20025;-59
2021/12/04 04:20:55;;;;;;;38.13;27.17;;;;;;;;;;5049107;28;20029;-60
2021/12/04 04:23:20;;;;;;;31.47;24.83;;;;;;;;;;5050592;28;20410;-59
2021/12/04 04:25:46;;;;;;;35.20;24.65;;;;;;;;;;5037297;28;20509;-60
2021/12/04 04:28:11;;;;;;;39.30;26.53;;;;;;;;;;5035813;28;20037;-59
2021/12/04 04:30:37;;;;;;;35.83;25.33;;;;;;;;;;5053221;28;20447;-60
2021/12/04 04:33:03;;;;;;;37.33;28.17;;;;;;;;;;5041794;28;20461;-59
2021/12/04 04:35:30;;;;;;;37.97;27.55;;;;;;;;;;5032939;28;20065;-60
2021/12/04 04:57:33;;;;;;;41.00;31.70;;;;;;;;;;5033326;28;20063;-58
2021/12/04 05:00:03;;;;;;;38.97;24.85;;;;;;;;;;5033286;28;20079;-58
2021/12/04 05:11:03;;;;;;;42.17;26.40;;;;;;;;;;5052730;28;20403;-59
2021/12/04 05:13:28;;;;;;;47.15;28.85;;;;;;;;;;5054155;28;20021;-58
2021/12/04 05:15:58;;;;;;;43.53;29.53;;;;;;;;;;5048389;28;20116;-58
2021/12/04 05:21:05;;;;;;;40.58;28.75;;;;;;;;;;5046238;28;20033;-58
2021/12/04 05:23:39;;;;;;;38.83;27.42;;;;;;;;;;5051655;28;20383;-59
2021/12/04 05:26:06;;;;;;;44.75;27.35;;;;;;;;;;5047207;28;20060;-58
2021/12/04 05:28:31;;;;;;;50.65;28.75;;;;;;;;;;5050367;28;20013;-59
2021/12/04 05:30:56;;;;;;;52.75;31.48;;;;;;;;;;5052240;28;20052;-58
2021/12/04 05:33:22;;;;;;;49.65;31.13;;;;;;;;;;5046505;28;20024;-58
2021/12/04 05:35:48;;;;;;;63.92;33.05;;;;;;;;;;5043837;28;20033;-58
2021/12/04 05:38:15;;;;;;;59.65;33.92;;;;;;;;;;5053595;28;20052;-59
2021/12/04 05:40:40;;;;;;;56.40;32.00;;;;;;;;;;5051750;28;20064;-59
2021/12/04 05:43:05;;;;;;;55.67;33.50;;;;;;;;;;5053699;28;20062;-58
2021/12/04 05:45:33;;;;;;;59.10;34.83;;;;;;;;;;5050192;28;20497;-59
2021/12/04 05:48:17;;;;;;;59.88;32.70;;;;;;;;;;5041949;28;20452;-58
2021/12/04 05:55:52;;;;;;;51.90;31.92;;;;;;;;;;5042924;28;20041;-58
2021/12/04 05:58:18;;;;;;;63.92;35.20;;;;;;;;;;5051506;28;20029;-58
2021/12/04 06:00:43;;;;;;;59.45;34.08;;;;;;;;;;5041116;28;20036;-59
2021/12/04 06:03:09;;;;;;;67.78;35.72;;;;;;;;;;5044177;28;20025;-58
2021/12/04 06:05:36;;;;;;;67.70;39.70;;;;;;;;;;5050897;28;20037;-58
2021/12/04 06:08:01;;;;;;;58.72;36.50;;;;;;;;;;5051270;28;20473;-58
2021/12/04 06:10:26;;;;;;;53.95;34.20;;;;;;;;;;5050542;28;20048;-58
2021/12/04 06:12:51;;;;;;;71.90;36.50;;;;;;;;;;5051779;28;20031;-58
2021/12/04 06:15:16;;;;;;;72.63;35.22;;;;;;;;;;5048754;28;20448;-58
2021/12/04 06:17:42;;;;;;;61.97;35.73;;;;;;;;;;5051746;28;20025;-58
2021/12/04 06:22:59;;;;;;;65.03;38.33;;;;;;;;;;5021951;28;20032;-58
2021/12/04 06:25:25;;;;;;;66.80;37.40;;;;;;;;;;5031600;28;20038;-58
2021/12/04 06:27:51;;;;;;;68.43;39.42;;;;;;;;;;5032758;28;20026;-59
2021/12/04 06:30:17;;;;;;;79.22;40.13;;;;;;;;;;5029697;28;20064;-58
2021/12/04 06:32:42;;;;;;;71.45;42.42;;;;;;;;;;5038302;28;20023;-58
2021/12/04 06:35:09;;;;;;;80.25;41.10;;;;;;;;;;5047902;28;20653;-58
2021/12/04 06:37:34;;;;;;;84.40;41.25;;;;;;;;;;5041841;28;20025;-58
2021/12/04 06:39:59;;;;;;;87.77;41.87;;;;;;;;;;5031522;28;20449;-59
2021/12/04 06:42:24;;;;;;;68.43;43.17;;;;;;;;;;5035623;28;20444;-58
2021/12/04 06:44:53;;;;;;;85.97;44.73;;;;;;;;;;5032008;28;20079;-58
2021/12/04 06:47:18;;;;;;;65.38;35.47;;;;;;;;;;5048376;28;20860;-58
2021/12/04 06:49:44;;;;;;;78.93;43.07;;;;;;;;;;5037872;28;20044;-58
2021/12/04 06:52:15;;;;;;;89.68;44.97;;;;;;;;;;5040896;28;20483;-58
2021/12/04 06:54:48;;;;;;;97.15;46.88;;;;;;;;;;5040116;28;20699;-58
2021/12/04 06:57:13;;;;;;;79.28;46.10;;;;;;;;;;5042985;28;20052;-58
2021/12/04 06:59:40;;;;;;;78.15;45.17;;;;;;;;;;5036603;28;20048;-59
2021/12/04 07:02:06;;;;;;;83.47;43.22;;;;;;;;;;5040098;28;20024;-58
2021/12/04 07:04:37;;;;;;;93.55;45.58;;;;;;;;;;5038483;28;20040;-59
2021/12/04 07:07:06;;;;;;;112.60;52.75;;;;;;;;;;5041046;28;20096;-59
2021/12/04 07:09:31;;;;;;;;;;;;;;;;;;5038073;28;20098;-59
2021/12/04 07:11:58;;;;;;;89.07;46.50;;;;;;;;;;5041291;28;19920;-59
2021/12/04 07:14:23;;;;;;;94.75;47.38;;;;;;;;;;5038121;28;20496;-58
2021/12/04 07:16:48;;;;;;;100.50;56.03;;;;;;;;;;5047554;28;20024;-59
2021/12/04 07:19:14;;;;;;;97.13;53.25;;;;;;;;;;5049599;28;20051;-59
2021/12/04 07:21:40;;;;;;;113.90;57.60;;;;;;;;;;5032473;28;20048;-58
2021/12/04 07:24:05;;;;;;;107.10;52.53;;;;;;;;;;5030676;28;20009;-59
2021/12/04 07:26:30;;;;;;;99.77;49.47;;;;;;;;;;5030304;28;20044;-58
2021/12/04 07:28:55;;;;;;;107.63;54.47;;;;;;;;;;5030071;28;20098;-59
2021/12/04 07:31:20;;;;;;;94.75;50.92;;;;;;;;;;5042246;28;20033;-58
2021/12/04 07:33:46;;;;;;;85.60;46.83;;;;;;;;;;5033373;28;20052;-58
2021/12/04 07:36:11;;;;;;;95.40;48.40;;;;;;;;;;5035442;28;20043;-58
2021/12/04 07:38:36;;;;;;;92.10;51.88;;;;;;;;;;5041224;28;20435;-57
2021/12/04 07:41:03;;;;;;;99.05;50.88;;;;;;;;;;5040458;28;20599;-58
2021/12/04 07:43:28;;;;;;;103.32;49.95;;;;;;;;;;5048887;28;20049;-57
2021/12/04 07:45:53;;;;;;;95.53;53.45;;;;;;;;;;5036381;28;20068;-58
2021/12/04 07:48:18;;;;;;;103.43;52.38;;;;;;;;;;5044200;28;20021;-57
2021/12/04 07:50:44;;;;;;;91.28;48.95;;;;;;;;;;5038359;28;20428;-58
2021/12/04 07:53:09;;;;;;;96.88;49.75;;;;;;;;;;5031087;28;20073;-58
2021/12/04 07:55:34;;;;;;;104.40;55.30;;;;;;;;;;5043536;28;20869;-58
2021/12/04 07:57:59;;;;;;;96.93;49.87;;;;;;;;;;5034522;28;20470;-57
2021/12/04 08:00:25;;;;;;;110.78;54.25;;;;;;;;;;5043713;28;20456;-58
2021/12/04 08:02:50;;;;;;;101.68;52.20;;;;;;;;;;5030495;28;20104;-58
2021/12/04 08:05:16;;;;;;;100.10;51.60;;;;;;;;;;5030278;28;20036;-57
2021/12/04 08:07:41;;;;;;;112.30;53.00;;;;;;;;;;5043731;28;20100;-57
2021/12/04 08:10:15;;;;;;;102.70;52.90;;;;;;;;;;5030751;28;20061;-57
2021/12/04 08:12:40;;;;;;;96.40;49.40;;;;;;;;;;5050098;28;20032;-57
2021/12/04 08:15:07;;;;;;;92.07;55.25;;;;;;;;;;5049183;28;20063;-58
2021/12/04 08:17:32;;;;;;;108.93;53.17;;;;;;;;;;5050131;28;20071;-58
2021/12/04 08:19:58;;;;;;;88.95;47.22;;;;;;;;;;5047548;28;20392;-58
2021/12/04 08:22:23;;;;;;;108.32;52.72;;;;;;;;;;5030538;28;20014;-58
2021/12/04 08:24:48;;;;;;;93.03;53.83;;;;;;;;;;5028878;28;20377;-58
2021/12/04 08:27:14;;;;;;;103.15;50.13;;;;;;;;;;5030170;28;20417;-58
2021/12/04 08:29:40;;;;;;;98.80;48.05;;;;;;;;;;5028954;28;20021;-57
2021/12/04 08:32:05;;;;;;;102.30;52.15;;;;;;;;;;5041657;28;20025;-58
2021/12/04 08:34:30;;;;;;;98.20;47.60;;;;;;;;;;5036741;28;20029;-58
2021/12/04 08:36:55;;;;;;;101.57;50.95;;;;;;;;;;5044568;28;20513;-57
2021/12/04 08:39:21;;;;;;;106.03;52.53;;;;;;;;;;5043256;28;20025;-58
2021/12/04 08:41:46;;;;;;;105.37;54.30;;;;;;;;;;5047842;28;20458;-58
2021/12/04 08:44:11;;;;;;;86.22;52.78;;;;;;;;;;5039548;28;20538;-58
2021/12/04 08:46:38;;;;;;;103.57;50.10;;;;;;;;;;5045406;28;20021;-58
2021/12/04 08:49:03;;;;;;;89.45;46.47;;;;;;;;;;5045167;28;20451;-58
2021/12/04 08:51:29;;;;;;;95.20;48.90;;;;;;;;;;5045232;28;20045;-58
2021/12/04 08:53:54;;;;;;;95.75;50.88;;;;;;;;;;5030657;28;20028;-58
2021/12/04 08:56:20;;;;;;;96.53;51.53;;;;;;;;;;5028543;28;20038;-58
2021/12/04 08:58:45;;;;;;;109.97;50.30;;;;;;;;;;5044080;28;20372;-57
2021/12/04 09:01:12;;;;;;;78.38;47.28;;;;;;;;;;5022103;28;20037;-58
2021/12/04 09:03:40;;;;;;;80.13;44.50;;;;;;;;;;5029813;28;20017;-58
2021/12/04 09:06:05;;;;;;;102.07;45.67;;;;;;;;;;5030570;28;20030;-58
2021/12/04 09:08:30;;;;;;;92.15;47.05;;;;;;;;;;5029576;28;20427;-57
2021/12/04 09:10:57;;;;;;;82.70;44.85;;;;;;;;;;5040835;28;20566;-58
2021/12/04 09:13:24;;;;;;;79.28;43.90;;;;;;;;;;5050565;28;20020;-58
2021/12/04 09:15:49;;;;;;;85.72;46.58;;;;;;;;;;5032075;28;20045;-58
2021/12/04 09:18:14;;;;;;;79.25;43.00;;;;;;;;;;5035313;28;20079;-58
2021/12/04 09:20:40;;;;;;;87.28;47.53;;;;;;;;;;5051091;28;20029;-58
2021/12/04 09:23:09;;;;;;;73.50;43.92;;;;;;;;;;5053433;28;20055;-57
2021/12/04 09:25:38;;;;;;;70.63;43.10;;;;;;;;;;5046100;28;20040;-58
2021/12/04 10:02:41;;;;;;;51.40;31.77;;;;;;;;;;5055228;28;20033;-58
2021/12/04 10:05:46;;;;;;;50.28;33.75;;;;;;;;;;5055047;28;20041;-58
2021/12/04 10:22:35;;;;;;;54.90;31.95;;;;;;;;;;5068148;28;20115;-57
2021/12/04 10:33:49;;;;;;;47.35;31.13;;;;;;;;;;5057835;28;20031;-57
2021/12/04 10:36:25;;;;;;;52.15;30.90;;;;;;;;;;5055184;28;20119;-58
2021/12/04 10:38:50;;;;;;;50.95;34.67;;;;;;;;;;5061596;28;20016;-57
2021/12/04 10:41:16;;;;;;;58.30;32.63;;;;;;;;;;5063827;28;20460;-57
2021/12/04 10:43:41;;;;;;;57.58;31.45;;;;;;;;;;5054847;28;20053;-58
2021/12/04 10:46:15;;;;;;;58.37;34.23;;;;;;;;;;5042223;28;20043;-58
2021/12/04 10:48:48;;;;;;;72.47;33.70;;;;;;;;;;5062487;28;20969;-58
2021/12/04 10:51:26;;;;;;;56.08;32.30;;;;;;;;;;5063089;28;20053;-58
2021/12/04 10:53:55;;;;;;;58.22;30.75;;;;;;;;;;5050742;28;20100;-58
2021/12/04 11:02:03;;;;;;;65.47;34.67;;;;;;;;;;5030061;28;20128;-58
2021/12/04 11:21:24;;;;;;;51.20;27.75;;;;;;;;;;5040654;28;20148;-58
2021/12/04 11:35:15;;;;;;;48.83;30.95;;;;;;;;;;5030093;28;20041;-57
2021/12/04 11:42:54;;;;;;;41.65;28.02;;;;;;;;;;5031266;28;20033;-58
2021/12/04 11:45:22;;;;;;;34.72;23.95;;;;;;;;;;5029568;28;20087;-58
2021/12/04 11:47:53;;;;;;;33.07;23.60;;;;;;;;;;5044219;28;20029;-58
2021/12/04 11:50:26;;;;;;;32.88;24.10;;;;;;;;;;5049268;28;20462;-58
2021/12/04 11:52:53;;;;;;;32.40;23.38;;;;;;;;;;5050310;28;20056;-58
2021/12/04 11:55:20;;;;;;;40.00;26.70;;;;;;;;;;5045210;28;20060;-57
2021/12/04 11:57:46;;;;;;;33.75;25.90;;;;;;;;;;5041603;28;20079;-58
2021/12/04 12:00:26;;;;;;;40.45;26.10;;;;;;;;;;5028203;28;20033;-58
2021/12/04 12:02:52;;;;;;;30.13;23.25;;;;;;;;;;5031028;28;20110;-57
2021/12/04 12:05:19;;;;;;;31.30;22.55;;;;;;;;;;5028773;28;20503;-57
2021/12/04 12:07:55;;;;;;;30.40;21.15;;;;;;;;;;5040847;28;20025;-57
2021/12/04 12:10:21;;;;;;;30.52;23.05;;;;;;;;;;5048168;28;20428;-57
2021/12/04 12:12:47;;;;;;;32.70;22.17;;;;;;;;;;5050650;28;20017;-57
2021/12/04 12:15:31;;;;;;;32.60;22.90;;;;;;;;;;5049100;28;20040;-57
2021/12/04 12:18:08;;;;;;;25.75;21.95;;;;;;;;;;5041686;28;20115;-57
2021/12/04 12:20:44;;;;;;;32.20;22.30;;;;;;;;;;5029038;28;20189;-57
2021/12/04 12:23:11;;;;;;;22.77;19.02;;;;;;;;;;5031418;28;20022;-57
2021/12/04 12:33:57;;;;;;;22.00;19.50;;;;;;;;;;5030952;28;20087;-57
2021/12/04 12:36:24;;;;;;;25.67;18.88;;;;;;;;;;5040371;28;20052;-57
2021/12/04 12:38:58;;;;;;;20.20;17.83;;;;;;;;;;5050591;28;20468;-57
2021/12/04 12:41:39;;;;;;;21.90;19.35;;;;;;;;;;5048978;28;20090;-57
2021/12/04 12:44:09;;;;;;;25.42;22.55;;;;;;;;;;5038004;28;20025;-57
2021/12/04 12:46:36;;;;;;;24.23;20.45;;;;;;;;;;5032187;28;20466;-57
2021/12/04 12:49:03;;;;;;;25.13;20.95;;;;;;;;;;5034328;28;20059;-57
2021/12/04 12:51:29;;;;;;;23.63;21.33;;;;;;;;;;5032529;28;20582;-57
2021/12/04 12:53:55;;;;;;;25.67;23.08;;;;;;;;;;5036037;28;20097;-57
2021/12/04 12:56:22;;;;;;;27.08;24.02;;;;;;;;;;5039491;28;20127;-57
2021/12/04 12:58:54;;;;;;;25.75;22.48;;;;;;;;;;5042608;28;20021;-57
2021/12/04 13:12:22;;;;;;;29.90;26.25;;;;;;;;;;5035452;28;20484;-57
2021/12/04 13:14:50;;;;;;;29.88;25.40;;;;;;;;;;5033437;28;20056;-57
2021/12/04 13:17:20;;;;;;;31.50;26.73;;;;;;;;;;5052244;28;20017;-57
2021/12/04 13:19:48;;;;;;;30.33;27.08;;;;;;;;;;5052250;28;20033;-57
2021/12/04 13:22:17;;;;;;;33.13;29.58;;;;;;;;;;5054022;28;20020;-58
2021/12/04 13:24:42;;;;;;;33.15;28.35;;;;;;;;;;5052433;28;20048;-57
2021/12/04 13:29:36;;;;;;;32.88;28.23;;;;;;;;;;5044001;28;20033;-57
2021/12/04 13:32:03;;;;;;;34.05;28.35;;;;;;;;;;5053764;28;20021;-57
2021/12/04 13:34:29;;;;;;;31.75;28.35;;;;;;;;;;5051243;28;20056;-57
2021/12/04 13:36:55;;;;;;;34.80;31.20;;;;;;;;;;5039919;28;20526;-57
2021/12/04 13:39:20;;;;;;;35.13;29.90;;;;;;;;;;5031995;28;20037;-57
2021/12/04 13:41:46;;;;;;;37.15;31.67;;;;;;;;;;5046029;28;20017;-57
2021/12/04 13:44:12;;;;;;;42.10;33.38;;;;;;;;;;5052155;28;20353;-57
2021/12/04 13:46:39;;;;;;;38.10;31.38;;;;;;;;;;5050112;28;20104;-57
2021/12/04 13:49:05;;;;;;;44.50;38.78;;;;;;;;;;5050240;28;20028;-56
2021/12/04 13:51:30;;;;;;;40.25;35.42;;;;;;;;;;5050885;28;20106;-58
2021/12/04 13:53:55;;;;;;;39.85;33.17;;;;;;;;;;5053289;28;20036;-57
2021/12/04 13:56:22;;;;;;;40.20;31.85;;;;;;;;;;5050960;28;20041;-57
2021/12/04 13:58:54;;;;;;;35.25;30.38;;;;;;;;;;5053325;28;20495;-57
2021/12/04 14:01:19;;;;;;;32.58;28.75;;;;;;;;;;5051299;28;20040;-57
2021/12/04 14:03:47;;;;;;;35.95;29.70;;;;;;;;;;5052988;28;20092;-57
2021/12/04 14:06:13;;;;;;;35.28;29.90;;;;;;;;;;5040996;28;20041;-57
2021/12/04 14:08:39;;;;;;;36.10;30.70;;;;;;;;;;5036153;28;20031;-57
2021/12/04 14:11:04;;;;;;;43.88;34.08;;;;;;;;;;5042691;28;20124;-57
2021/12/04 14:13:29;;;;;;;43.35;33.92;;;;;;;;;;5033029;28;20021;-57
2021/12/04 14:15:55;;;;;;;39.60;33.10;;;;;;;;;;5038709;28;20060;-57
2021/12/04 14:18:22;;;;;;;41.75;33.55;;;;;;;;;;5047385;28;20062;-57
2021/12/04 14:20:49;;;;;;;45.03;34.95;;;;;;;;;;5045346;28;20033;-57
2021/12/04 14:23:14;;;;;;;45.65;35.15;;;;;;;;;;5032846;28;20354;-58
2021/12/04 14:25:44;;;;;;;45.75;36.05;;;;;;;;;;5039624;28;20040;-57
2021/12/04 14:28:14;;;;;;;52.20;38.67;;;;;;;;;;5033388;28;20476;-57
2021/12/04 14:30:44;;;;;;;55.72;39.47;;;;;;;;;;5051286;28;20417;-57
2021/12/04 14:33:10;;;;;;;45.75;35.97;;;;;;;;;;5053027;28;20017;-57
2021/12/04 14:35:38;;;;;;;41.30;34.25;;;;;;;;;;5036395;28;20121;-57
2021/12/04 14:38:03;;;;;;;;;;;;;;;;;;5033056;28;20021;-57
2021/12/04 14:40:35;;;;;;;41.75;33.67;;;;;;;;;;5031012;28;19909;-57
2021/12/04 14:43:01;;;;;;;44.15;34.72;;;;;;;;;;5035528;28;20013;-57
2021/12/04 14:45:31;;;;;;;50.95;34.13;;;;;;;;;;5050779;28;20036;-57
2021/12/04 14:48:02;;;;;;;48.63;35.47;;;;;;;;;;5050685;28;20079;-57
2021/12/04 14:50:27;;;;;;;46.75;34.28;;;;;;;;;;5034135;28;20519;-57
2021/12/04 14:52:53;;;;;;;47.57;36.00;;;;;;;;;;5052280;28;20049;-57
2021/12/04 14:55:21;;;;;;;45.33;33.05;;;;;;;;;;5050593;28;20554;-56
2021/12/04 14:57:46;;;;;;;46.58;34.55;;;;;;;;;;5050780;28;20032;-57
2021/12/04 15:00:16;;;;;;;47.22;33.83;;;;;;;;;;5050774;28;20423;-57
2021/12/04 15:02:48;;;;;;;41.10;32.40;;;;;;;;;;5052306;28;20025;-57
2021/12/04 15:05:23;;;;;;;40.58;32.45;;;;;;;;;;5049250;28;20037;-58
2021/12/04 15:07:57;;;;;;;39.58;31.27;;;;;;;;;;5044962;28;20022;-57
2021/12/04 15:10:22;;;;;;;46.03;33.15;;;;;;;;;;5030045;28;20068;-57
2021/12/04 15:12:48;;;;;;;46.33;35.77;;;;;;;;;;5032088;28;20045;-56
2021/12/04 15:15:13;;;;;;;45.85;34.83;;;;;;;;;;5030364;28;21051;-57
2021/12/04 15:17:42;;;;;;;46.42;33.08;;;;;;;;;;5032522;28;20512;-57
2021/12/04 15:20:10;;;;;;;43.60;32.97;;;;;;;;;;5030342;28;20043;-56
2021/12/04 15:22:42;;;;;;;38.40;31.15;;;;;;;;;;5031797;28;20017;-56
2021/12/04 15:25:15;;;;;;;45.00;32.58;;;;;;;;;;5041804;28;20132;-57
2021/12/04 15:27:41;;;;;;;42.25;31.88;;;;;;;;;;5031739;28;20060;-57
2021/12/04 15:30:09;;;;;;;40.15;29.77;;;;;;;;;;5030259;28;20061;-57
2021/12/04 15:32:37;;;;;;;42.50;29.60;;;;;;;;;;5031281;28;20112;-57
2021/12/04 15:35:15;;;;;;;43.17;30.90;;;;;;;;;;5034723;28;20125;-57
2021/12/04 15:37:53;;;;;;;43.92;31.92;;;;;;;;;;5037889;28;20104;-56
2021/12/04 15:40:35;;;;;;;42.95;31.63;;;;;;;;;;5049502;28;20033;-56
2021/12/04 15:45:42;;;;;;;35.05;29.10;;;;;;;;;;5037674;28;20713;-57
2021/12/04 15:51:26;;;;;;;41.83;31.48;;;;;;;;;;5033171;28;20055;-57
2021/12/04 15:53:57;;;;;;;41.92;28.23;;;;;;;;;;5049512;28;20025;-57
2021/12/04 15:56:29;;;;;;;44.35;30.65;;;;;;;;;;5037028;28;20041;-57
2021/12/04 15:58:54;;;;;;;43.90;30.30;;;;;;;;;;5045482;28;20027;-57
2021/12/04 16:01:25;;;;;;;49.95;31.88;;;;;;;;;;5047379;28;20043;-57
2021/12/04 16:03:50;;;;;;;48.85;29.95;;;;;;;;;;5048662;28;20039;-57
2021/12/04 16:06:16;;;;;;;46.63;29.13;;;;;;;;;;5032819;28;20030;-57
2021/12/04 16:08:41;;;;;;;48.92;33.40;;;;;;;;;;5034413;28;20025;-57
2021/12/04 16:11:08;;;;;;;43.60;30.67;;;;;;;;;;5032451;28;20052;-57
2021/12/04 16:13:35;;;;;;;50.53;36.58;;;;;;;;;;5038110;28;20053;-57
2021/12/04 16:16:09;;;;;;;43.63;29.67;;;;;;;;;;5035164;28;20094;-58
2021/12/04 16:18:34;;;;;;;47.28;32.22;;;;;;;;;;5042446;28;20021;-57
2021/12/04 16:21:01;;;;;;;47.03;30.08;;;;;;;;;;5052815;28;20735;-58
2021/12/04 16:23:27;;;;;;;47.83;32.78;;;;;;;;;;5054773;28;20013;-57
2021/12/04 16:25:53;;;;;;;46.45;31.33;;;;;;;;;;5065040;28;20032;-57
2021/12/04 16:28:44;;;;;;;43.80;30.23;;;;;;;;;;5040778;28;20494;-57
2021/12/04 16:34:03;;;;;;;45.95;33.08;;;;;;;;;;5053327;28;20033;-58
2021/12/04 16:39:02;;;;;;;46.45;31.48;;;;;;;;;;5043761;28;20061;-57
2021/12/04 16:41:28;;;;;;;54.13;35.40;;;;;;;;;;5045486;28;20087;-57
2021/12/04 16:43:54;;;;;;;42.20;31.52;;;;;;;;;;5052502;28;20060;-58
2021/12/04 16:46:20;;;;;;;45.47;32.53;;;;;;;;;;5051423;28;20061;-58
2021/12/04 16:48:49;;;;;;;48.38;32.30;;;;;;;;;;5037165;28;20782;-58
2021/12/04 16:59:13;;;;;;;41.15;31.38;;;;;;;;;;5036759;28;20549;-57
2021/12/04 17:01:39;;;;;;;49.50;37.58;;;;;;;;;;5037037;28;20013;-58
2021/12/04 17:04:04;;;;;;;48.80;32.65;;;;;;;;;;5059009;28;20017;-57
2021/12/04 17:06:30;;;;;;;42.38;32.08;;;;;;;;;;5052693;28;20120;-58
2021/12/04 17:08:55;;;;;;;44.53;30.40;;;;;;;;;;5051293;28;20537;-58
2021/12/04 17:11:20;;;;;;;44.90;30.67;;;;;;;;;;5035382;28;20037;-58
2021/12/04 17:13:46;;;;;;;44.15;32.25;;;;;;;;;;5043766;28;20500;-58
2021/12/04 17:16:13;;;;;;;44.97;33.67;;;;;;;;;;5043477;28;20045;-58
2021/12/04 17:18:40;;;;;;;42.28;32.42;;;;;;;;;;5039664;28;20075;-58
2021/12/04 17:21:05;;;;;;;49.50;34.10;;;;;;;;;;5055708;28;20033;-58
2021/12/04 17:23:30;;;;;;;46.63;33.95;;;;;;;;;;5056164;28;20072;-58
2021/12/04 17:25:57;;;;;;;42.17;34.28;;;;;;;;;;5036481;28;20038;-58
2021/12/04 17:28:24;;;;;;;46.42;33.55;;;;;;;;;;5047349;28;20025;-58
2021/12/04 17:30:50;;;;;;;40.90;31.55;;;;;;;;;;5042867;28;20152;-58
2021/12/04 17:33:16;;;;;;;103.50;72.22;;;;;;;;;;5035977;28;20112;-58